createdAt,value
2023-07-03T00:00:19.361Z,94638.81
2023-07-03T00:02:53.621Z,94635.66
2023-07-03T00:05:22.370Z,94631.38
2023-07-03T00:07:49.903Z,94629.44
2023-07-03T00:10:17.956Z,94636.28
2023-07-03T00:12:45.693Z,94641.69
2023-07-03T00:15:13.277Z,94637.38
2023-07-03T00:17:41.535Z,94640.09
2023-07-03T00:20:14.793Z,94636.94
2023-07-03T00:22:43.669Z,94638.81
2023-07-03T00:25:11.344Z,94644.56
2023-07-03T00:27:38.679Z,94640.25
2023-07-03T00:30:06.990Z,94637.56
2023-07-03T00:32:34.422Z,94636.78
2023-07-03T00:35:01.574Z,94629.78
2023-07-03T00:37:29.141Z,94628.53
2023-07-03T00:39:56.312Z,94630.09
2023-07-03T00:42:25.652Z,94626.94
2023-07-03T00:44:53.160Z,94642.34
2023-07-03T00:47:20.831Z,94643.47
2023-07-03T00:49:48.550Z,94634.53
2023-07-03T00:52:16.247Z,94639.16
2023-07-03T00:54:43.601Z,94637.56
2023-07-03T00:57:15.097Z,94626.59
2023-07-03T00:59:42.237Z,94637.41
2023-07-03T01:02:30.615Z,94635.00
2023-07-03T01:05:06.881Z,94639.59
2023-07-03T01:07:36.857Z,94646.91
2023-07-03T01:10:14.228Z,94645.66
2023-07-03T01:12:45.952Z,94640.25
2023-07-03T01:15:18.950Z,94633.56
2023-07-03T01:17:52.066Z,94634.34
2023-07-03T01:20:22.187Z,94632.75
2023-07-03T01:23:24.962Z,94628.81
2023-07-03T01:25:53.795Z,94639.59
2023-07-03T01:28:25.354Z,94642.63
2023-07-03T01:30:56.111Z,94635.63
2023-07-03T01:33:31.989Z,94641.03
2023-07-03T01:36:00.950Z,94644.84
2023-07-03T01:38:31.047Z,94638.34
2023-07-03T01:41:00.563Z,94637.84
2023-07-03T01:43:29.218Z,94637.84
2023-07-03T01:45:56.314Z,94637.84
2023-07-03T01:48:23.611Z,94640.88
2023-07-03T01:50:51.104Z,94638.16
2023-07-03T01:53:31.025Z,94646.59
2023-07-03T01:56:20.080Z,94647.22
2023-07-03T01:58:52.137Z,94632.59
2023-07-03T02:01:30.533Z,94639.94
2023-07-03T02:04:10.236Z,94641.03
2023-07-03T02:06:44.902Z,94644.84
2023-07-03T02:09:12.717Z,94644.84
2023-07-03T02:11:48.726Z,94644.06
2023-07-03T02:14:16.303Z,94642.47
2023-07-03T02:16:45.374Z,94644.34
2023-07-03T02:19:14.799Z,94645.16
2023-07-03T02:21:45.704Z,94639.28
2023-07-03T02:24:13.844Z,94639.28
2023-07-03T02:26:43.276Z,94637.69
2023-07-03T02:29:10.518Z,94637.69
2023-07-03T02:31:39.008Z,94646.88
2023-07-03T02:34:06.548Z,94644.19
2023-07-03T02:36:41.507Z,94638.00
2023-07-03T02:39:11.090Z,94635.31
2023-07-03T02:41:38.218Z,94646.44
2023-07-03T02:44:05.500Z,94638.63
2023-07-03T02:46:34.528Z,94638.94
2023-07-03T02:49:01.711Z,94642.13
2023-07-03T02:51:29.059Z,94645.16
2023-07-03T02:53:59.835Z,94646.25
2023-07-03T02:56:26.967Z,94654.38
2023-07-03T02:58:54.061Z,94644.66
2023-07-03T03:01:26.866Z,94641.47
2023-07-03T03:03:55.776Z,94642.59
2023-07-03T03:06:23.066Z,94646.88
2023-07-03T03:08:50.051Z,94654.97
2023-07-03T03:11:18.166Z,94645.28
2023-07-03T03:13:48.298Z,94645.63
2023-07-03T03:16:17.261Z,94651.00
2023-07-03T03:18:44.328Z,94645.94
2023-07-03T03:21:11.695Z,94651.00
2023-07-03T03:23:38.845Z,94653.22
2023-07-03T03:26:07.841Z,94652.44
2023-07-03T03:28:34.908Z,94657.84
2023-07-03T03:31:02.591Z,94657.84
2023-07-03T03:33:32.426Z,94665.16
2023-07-03T03:35:59.435Z,94663.56
2023-07-03T03:38:26.940Z,94666.25
2023-07-03T03:40:57.813Z,94659.28
2023-07-03T03:43:28.722Z,94667.38
2023-07-03T03:46:01.383Z,94666.56
2023-07-03T03:48:31.776Z,94660.38
2023-07-03T03:51:01.647Z,94663.06
2023-07-03T03:53:31.057Z,94662.28
2023-07-03T03:55:58.592Z,94661.47
2023-07-03T03:58:26.302Z,94662.59
2023-07-03T04:00:54.090Z,94662.59
2023-07-03T04:03:21.212Z,94666.88
2023-07-03T04:05:49.393Z,94665.00
2023-07-03T04:08:17.013Z,94662.59
2023-07-03T04:10:44.320Z,94665.28
2023-07-03T04:13:14.332Z,94662.59
2023-07-03T04:15:54.012Z,94667.19
2023-07-03T04:18:23.894Z,94661.81
2023-07-03T04:20:51.161Z,94658.59
2023-07-03T04:23:19.369Z,94667.19
2023-07-03T04:25:47.784Z,94662.91
2023-07-03T04:28:17.068Z,94663.69
2023-07-03T04:30:44.149Z,94669.91
2023-07-03T04:33:11.188Z,94670.22
2023-07-03T04:35:38.891Z,94668.31
2023-07-03T04:38:06.383Z,94669.09
2023-07-03T04:40:34.176Z,94662.91
2023-07-03T04:43:01.467Z,94673.38
2023-07-03T04:45:31.690Z,94672.59
2023-07-03T04:47:59.141Z,94679.88
2023-07-03T04:50:26.800Z,94676.06
2023-07-03T04:52:56.156Z,94687.69
2023-07-03T04:55:24.744Z,94691.16
2023-07-03T04:57:51.998Z,94688.47
2023-07-03T05:00:20.699Z,94686.59
2023-07-03T05:02:50.880Z,94693.88
2023-07-03T05:05:20.006Z,94693.88
2023-07-03T05:07:47.258Z,94689.28
2023-07-03T05:10:16.375Z,94681.97
2023-07-03T05:12:44.850Z,94681.97
2023-07-03T05:15:15.388Z,94683.88
2023-07-03T05:17:42.871Z,94687.38
2023-07-03T05:20:17.444Z,94689.28
2023-07-03T05:22:46.271Z,94681.66
2023-07-03T05:25:15.539Z,94681.66
2023-07-03T05:27:43.131Z,94692.44
2023-07-03T05:30:11.611Z,94683.25
2023-07-03T05:32:39.223Z,94689.44
2023-07-03T05:35:08.125Z,94692.94
2023-07-03T05:37:37.062Z,94687.53
2023-07-03T05:40:08.037Z,94694.53
2023-07-03T05:42:36.498Z,94693.72
2023-07-03T05:45:05.338Z,94703.41
2023-07-03T05:47:32.579Z,94702.31
2023-07-03T05:49:59.581Z,94702.31
2023-07-03T05:52:26.763Z,94700.38
2023-07-03T05:54:54.210Z,94693.09
2023-07-03T05:57:22.161Z,94701.19
2023-07-03T05:59:49.734Z,94701.69
2023-07-03T06:02:17.433Z,94699.00
2023-07-03T06:04:44.730Z,94711.06
2023-07-03T06:07:11.928Z,94706.44
2023-07-03T06:09:38.959Z,94708.38
2023-07-03T06:12:07.222Z,94713.44
2023-07-03T06:14:35.113Z,94710.75
2023-07-03T06:17:02.333Z,94710.75
2023-07-03T06:19:31.014Z,94722.03
2023-07-03T06:21:58.477Z,94720.13
2023-07-03T06:24:25.872Z,94717.09
2023-07-03T06:26:53.842Z,94728.72
2023-07-03T06:29:21.082Z,94727.59
2023-07-03T06:31:48.847Z,94729.16
2023-07-03T06:34:16.275Z,94722.66
2023-07-03T06:36:43.375Z,94724.56
2023-07-03T06:39:11.346Z,94725.84
2023-07-03T06:41:38.486Z,94725.06
2023-07-03T06:44:12.301Z,94724.75
2023-07-03T06:46:39.427Z,94715.06
2023-07-03T06:49:06.634Z,94715.53
2023-07-03T06:51:33.901Z,94719.03
2023-07-03T06:54:01.099Z,94722.22
2023-07-03T06:56:29.594Z,94723.00
2023-07-03T06:58:57.068Z,94717.28
2023-07-03T07:01:26.858Z,94718.88
2023-07-03T07:03:54.058Z,94721.56
2023-07-03T07:06:25.408Z,94723.97
2023-07-03T07:08:53.205Z,94722.84
2023-07-03T07:11:24.746Z,94719.34
2023-07-03T07:13:53.504Z,94727.94
2023-07-03T07:16:31.757Z,94717.94
2023-07-03T07:19:01.874Z,94715.22
2023-07-03T07:21:33.769Z,94718.75
2023-07-03T07:24:12.508Z,94725.72
2023-07-03T07:26:39.708Z,94722.72
2023-07-03T07:29:06.758Z,94724.31
2023-07-03T07:31:39.740Z,94723.16
2023-07-03T07:34:11.465Z,94725.56
2023-07-03T07:36:39.820Z,94722.56
2023-07-03T07:39:07.971Z,94726.56
2023-07-03T07:41:35.581Z,94727.34
2023-07-03T07:44:02.732Z,94725.94
2023-07-03T07:46:32.787Z,94735.59
2023-07-03T07:49:01.737Z,94724.50
2023-07-03T07:51:29.367Z,94720.69
2023-07-03T07:53:58.411Z,94726.56
2023-07-03T07:56:27.953Z,94728.94
2023-07-03T07:58:55.654Z,94718.94
2023-07-03T08:01:23.040Z,94724.84
2023-07-03T08:03:50.501Z,94721.81
2023-07-03T08:06:18.443Z,94730.69
2023-07-03T08:08:46.112Z,94731.19
2023-07-03T08:11:15.329Z,94731.97
2023-07-03T08:13:43.227Z,94727.06
2023-07-03T08:16:12.136Z,94730.25
2023-07-03T08:18:39.431Z,94722.91
2023-07-03T08:21:06.668Z,94721.81
2023-07-03T08:23:33.727Z,94719.59
2023-07-03T08:26:01.863Z,94718.47
2023-07-03T08:28:31.364Z,94713.84
2023-07-03T08:30:59.441Z,94710.81
2023-07-03T08:33:27.086Z,94717.81
2023-07-03T08:38:25.200Z,94722.63
2023-07-03T08:41:00.467Z,94726.09
2023-07-03T08:43:46.334Z,94722.63
2023-07-03T08:46:20.802Z,94717.66
2023-07-03T08:48:52.432Z,94712.25
2023-07-03T08:51:24.200Z,94712.75
2023-07-03T08:54:20.942Z,94713.53
2023-07-03T08:56:49.668Z,94715.94
2023-07-03T08:59:16.895Z,94702.09
2023-07-03T09:02:11.700Z,94712.13
2023-07-03T09:05:32.516Z,94710.19
2023-07-03T09:08:06.588Z,94715.28
2023-07-03T09:10:42.687Z,94705.28
2023-07-03T09:13:32.112Z,94703.84
2023-07-03T09:16:03.729Z,94708.13
2023-07-03T09:18:44.125Z,94704.63
2023-07-03T09:21:11.397Z,94712.09
2023-07-03T09:24:07.546Z,94700.19
2023-07-03T09:27:01.344Z,94714.47
2023-07-03T09:29:31.172Z,94714.16
2023-07-03T09:31:58.523Z,94704.94
2023-07-03T09:34:25.920Z,94705.09
2023-07-03T09:37:02.767Z,94696.97
2023-07-03T09:39:33.011Z,94709.06
2023-07-03T09:42:07.913Z,94711.50
2023-07-03T09:44:43.036Z,94700.69
2023-07-03T09:47:43.463Z,94713.88
2023-07-03T09:50:10.881Z,94707.81
2023-07-03T09:52:59.463Z,94717.50
2023-07-03T09:55:36.395Z,94713.69
2023-07-03T09:58:20.437Z,94699.06
2023-07-03T10:00:56.322Z,94706.84
2023-07-03T10:03:32.654Z,94704.63
2023-07-03T10:11:34.982Z,94702.06
2023-07-03T10:14:02.711Z,94699.03
2023-07-03T10:16:31.835Z,94709.53
2023-07-03T10:19:00.136Z,94705.72
2023-07-03T10:21:28.109Z,94696.97
2023-07-03T10:23:55.973Z,94711.28
2023-07-03T10:26:29.721Z,94699.34
2023-07-03T10:29:30.840Z,94705.53
2023-07-03T10:32:04.785Z,94693.59
2023-07-03T10:34:48.406Z,94692.50
2023-07-03T10:37:20.028Z,94690.28
2023-07-03T10:40:10.498Z,94688.34
2023-07-03T10:42:50.543Z,94691.88
2023-07-03T10:45:18.015Z,94691.19
2023-07-03T10:47:57.968Z,94690.88
2023-07-03T10:51:04.786Z,94696.63
2023-07-03T10:54:03.529Z,94700.44
2023-07-03T10:56:49.500Z,94694.38
2023-07-03T10:59:28.838Z,94693.28
2023-07-03T11:02:27.573Z,94701.06
2023-07-03T11:05:13.891Z,94698.34
2023-07-03T11:08:28.598Z,94698.34
2023-07-03T11:11:20.107Z,94692.94
2023-07-03T11:14:03.685Z,94702.31
2023-07-03T11:16:51.460Z,94702.31
2023-07-03T11:19:55.915Z,94695.00
2023-07-03T11:22:42.954Z,94687.69
2023-07-03T11:25:28.476Z,94697.84
2023-07-03T11:28:24.091Z,94694.84
2023-07-03T11:30:54.772Z,94693.72
2023-07-03T11:33:23.633Z,94693.38
2023-07-03T11:35:57.069Z,94686.88
2023-07-03T11:40:56.464Z,94695.13
2023-07-03T11:43:44.048Z,94687.78
2023-07-03T11:46:23.201Z,94687.78
2023-07-03T11:48:57.411Z,94689.06
2023-07-03T11:51:35.859Z,94695.28
2023-07-03T11:54:19.674Z,94691.44
2023-07-03T11:56:57.035Z,94690.31
2023-07-03T11:59:31.491Z,94680.47
2023-07-03T12:02:17.646Z,94674.59
2023-07-03T12:04:47.784Z,94674.25
2023-07-03T12:07:23.556Z,94679.34
2023-07-03T12:09:51.854Z,94685.22
2023-07-03T12:12:20.797Z,94677.91
2023-07-03T12:15:03.106Z,94692.69
2023-07-03T12:17:37.236Z,94700.00
2023-07-03T12:20:13.580Z,94682.66
2023-07-03T12:22:47.661Z,94685.03
2023-07-03T12:25:29.557Z,94683.13
2023-07-03T12:28:14.171Z,94675.78
2023-07-03T12:30:41.903Z,94685.19
2023-07-03T12:33:09.175Z,94675.63
2023-07-03T12:35:38.790Z,94675.28
2023-07-03T12:38:11.465Z,94676.88
2023-07-03T12:40:46.705Z,94679.25
2023-07-03T12:43:19.198Z,94676.56
2023-07-03T12:45:55.679Z,94676.22
2023-07-03T12:48:24.157Z,94675.88
2023-07-03T12:50:58.014Z,94679.06
2023-07-03T12:53:30.864Z,94666.34
2023-07-03T12:56:04.303Z,94676.03
2023-07-03T12:58:32.438Z,94669.97
2023-07-03T13:01:09.258Z,94672.69
2023-07-03T13:03:41.607Z,94672.34
2023-07-03T13:06:27.330Z,94665.81
2023-07-03T13:08:55.884Z,94666.59
2023-07-03T13:11:49.831Z,94666.28
2023-07-03T13:14:29.284Z,94671.03
2023-07-03T13:16:59.708Z,94668.81
2023-07-03T13:19:36.436Z,94666.22
2023-07-03T13:22:08.610Z,94670.66
2023-07-03T13:24:46.071Z,94671.25
2023-07-03T13:27:26.050Z,94660.59
2023-07-03T13:29:58.945Z,94661.97
2023-07-03T13:32:26.680Z,94661.78
2023-07-03T13:35:03.940Z,94664.31
2023-07-03T13:37:35.295Z,94664.09
2023-07-03T13:40:03.892Z,94659.28
2023-07-03T13:42:35.992Z,94665.28
2023-07-03T13:45:03.357Z,94666.66
2023-07-03T13:47:30.407Z,94662.97
2023-07-03T13:49:58.105Z,94662.31
2023-07-03T13:52:25.134Z,94672.16
2023-07-03T13:54:52.326Z,94659.03
2023-07-03T13:57:19.388Z,94662.25
2023-07-03T13:59:46.403Z,94658.41
2023-07-03T14:02:13.523Z,94662.38
2023-07-03T14:04:40.687Z,94649.28
2023-07-03T14:07:08.460Z,94660.56
2023-07-03T14:09:35.540Z,94661.03
2023-07-03T14:12:02.585Z,94648.72
2023-07-03T14:14:29.785Z,94654.63
2023-07-03T14:16:56.868Z,94649.66
2023-07-03T14:19:24.151Z,94657.47
2023-07-03T14:21:51.228Z,94659.06
2023-07-03T14:24:18.158Z,94659.84
2023-07-03T14:26:45.288Z,94654.41
2023-07-03T14:29:12.472Z,94655.19
2023-07-03T14:31:39.901Z,94654.06
2023-07-03T14:34:07.579Z,94654.88
2023-07-03T14:36:34.673Z,94654.06
2023-07-03T14:39:01.740Z,94656.47
2023-07-03T14:41:28.779Z,94649.88
2023-07-03T14:43:56.051Z,94644.16
2023-07-03T14:46:23.108Z,94637.25
2023-07-03T14:48:50.990Z,94641.22
2023-07-03T14:51:18.574Z,94649.81
2023-07-03T14:53:45.707Z,94644.06
2023-07-03T14:56:13.106Z,94635.22
2023-07-03T14:58:40.239Z,94635.69
2023-07-03T15:01:07.418Z,94623.38
2023-07-03T15:03:34.637Z,94627.34
2023-07-03T15:06:07.654Z,94631.28
2023-07-03T15:08:34.778Z,94623.28
2023-07-03T15:11:01.876Z,94619.91
2023-07-03T15:13:29.052Z,94623.53
2023-07-03T15:15:57.923Z,94625.25
2023-07-03T15:18:25.062Z,94615.31
2023-07-03T15:20:52.748Z,94611.56
2023-07-03T15:23:20.316Z,94624.56
2023-07-03T15:25:47.408Z,94618.47
2023-07-03T15:28:14.584Z,94621.75
2023-07-03T15:30:42.043Z,94615.66
2023-07-03T15:33:09.525Z,94612.69
2023-07-03T15:35:36.888Z,94616.31
2023-07-03T15:38:04.428Z,94606.69
2023-07-03T15:40:31.456Z,94602.50
2023-07-03T15:42:58.726Z,94603.41
2023-07-03T15:45:26.374Z,94608.50
2023-07-03T15:47:53.669Z,94608.97
2023-07-03T15:50:20.732Z,94610.56
2023-07-03T15:52:47.944Z,94614.16
2023-07-03T15:55:15.227Z,94613.81
2023-07-03T15:57:42.234Z,94597.97
2023-07-03T16:00:10.363Z,94616.66
2023-07-03T16:02:38.615Z,94609.31
2023-07-03T16:05:05.899Z,94607.03
2023-07-03T16:07:33.076Z,94605.44
2023-07-03T16:10:00.079Z,94610.53
2023-07-03T16:12:27.721Z,94618.34
2023-07-03T16:14:54.880Z,94607.13
2023-07-03T16:17:22.038Z,94609.53
2023-07-03T16:20:10.497Z,94613.38
2023-07-03T16:22:38.765Z,94614.97
2023-07-03T16:25:07.058Z,94611.44
2023-07-03T16:27:34.410Z,94617.22
2023-07-03T16:30:01.690Z,94624.91
2023-07-03T16:32:32.160Z,94624.13
2023-07-03T16:34:59.477Z,94624.78
2023-07-03T16:37:26.522Z,94634.88
2023-07-03T16:39:53.599Z,94627.50
2023-07-03T16:42:20.711Z,94625.94
2023-07-03T16:44:47.676Z,94631.34
2023-07-03T16:47:14.750Z,94629.81
2023-07-03T16:49:41.911Z,94633.28
2023-07-03T16:52:08.918Z,94637.94
2023-07-03T16:54:36.302Z,94627.09
2023-07-03T16:57:03.756Z,94627.41
2023-07-03T16:59:31.038Z,94627.75
2023-07-03T17:01:58.065Z,94637.50
2023-07-03T17:04:25.258Z,94640.22
2023-07-03T17:06:52.506Z,94638.63
2023-07-03T17:09:20.189Z,94638.97
2023-07-03T17:11:47.607Z,94643.94
2023-07-03T17:14:15.146Z,94643.94
2023-07-03T17:16:42.585Z,94640.75
2023-07-03T17:19:10.008Z,94640.31
2023-07-03T17:21:38.330Z,94639.84
2023-07-03T17:24:06.210Z,94644.81
2023-07-03T17:26:34.034Z,94641.66
2023-07-03T17:29:04.207Z,94643.91
2023-07-03T17:31:31.860Z,94645.03
2023-07-03T17:33:59.367Z,94652.72
2023-07-03T17:36:26.617Z,94651.50
2023-07-03T17:38:53.698Z,94648.34
2023-07-03T17:41:20.944Z,94648.66
2023-07-03T17:43:48.608Z,94652.06
2023-07-03T17:46:16.786Z,94653.19
2023-07-03T17:48:44.631Z,94661.69
2023-07-03T17:51:12.135Z,94659.28
2023-07-03T17:53:40.933Z,94656.94
2023-07-03T17:56:08.322Z,94659.19
2023-07-03T17:58:35.891Z,94663.03
2023-07-03T18:01:03.263Z,94661.78
2023-07-03T18:03:34.252Z,94664.50
2023-07-03T18:06:01.540Z,94661.34
2023-07-03T18:08:29.025Z,94658.94
2023-07-03T18:10:56.466Z,94661.66
2023-07-03T18:13:23.479Z,94658.84
2023-07-03T18:15:50.856Z,94658.84
2023-07-03T18:18:20.599Z,94658.38
2023-07-03T18:20:48.117Z,94652.97
2023-07-03T18:23:15.296Z,94649.00
2023-07-03T18:25:42.799Z,94643.88
2023-07-03T18:28:10.013Z,94655.91
2023-07-03T18:30:37.550Z,94643.00
2023-07-03T18:33:04.708Z,94644.13
2023-07-03T18:35:36.999Z,94653.38
2023-07-03T18:38:04.662Z,94645.91
2023-07-03T18:40:31.987Z,94639.66
2023-07-03T18:42:59.064Z,94654.69
2023-07-03T18:45:26.410Z,94654.69
2023-07-03T18:47:53.803Z,94656.97
2023-07-03T18:50:20.956Z,94648.38
2023-07-03T18:52:48.030Z,94661.94
2023-07-03T18:55:15.614Z,94662.28
2023-07-03T18:57:46.934Z,94657.53
2023-07-03T19:00:16.002Z,94663.28
2023-07-03T19:02:45.943Z,94664.41
2023-07-03T19:05:13.361Z,94672.91
2023-07-03T19:07:40.367Z,94672.44
2023-07-03T19:10:17.821Z,94674.38
2023-07-03T19:12:46.756Z,94684.75
2023-07-03T19:15:13.869Z,94676.13
2023-07-03T19:17:41.117Z,94694.69
2023-07-03T19:20:11.143Z,94700.13
2023-07-03T19:22:38.261Z,94701.53
2023-07-03T19:25:05.874Z,94700.78
2023-07-03T19:27:32.981Z,94703.00
2023-07-03T19:30:00.327Z,94706.06
2023-07-03T19:32:27.490Z,94709.13
2023-07-03T19:34:54.628Z,94710.25
2023-07-03T19:37:21.808Z,94727.63
2023-07-03T19:39:49.023Z,94721.75
2023-07-03T19:42:16.113Z,94734.53
2023-07-03T19:44:43.540Z,94735.97
2023-07-03T19:47:10.771Z,94739.81
2023-07-03T19:49:37.911Z,94738.22
2023-07-03T19:52:05.660Z,94740.47
2023-07-03T19:54:32.870Z,94745.44
2023-07-03T19:57:00.025Z,94744.97
2023-07-03T19:59:27.290Z,94752.31
2023-07-03T20:01:54.537Z,94748.03
2023-07-03T20:04:22.175Z,94752.63
2023-07-03T20:06:49.908Z,94755.69
2023-07-03T20:09:16.880Z,94761.44
2023-07-03T20:11:44.543Z,94755.53
2023-07-03T20:14:11.482Z,94758.56
2023-07-03T20:16:41.615Z,94761.63
2023-07-03T20:19:11.395Z,94755.72
2023-07-03T20:21:38.546Z,94756.84
2023-07-03T20:24:05.848Z,94757.19
2023-07-03T20:26:33.255Z,94754.81
2023-07-03T20:29:00.279Z,94747.00
2023-07-03T20:31:27.515Z,94745.41
2023-07-03T20:33:56.363Z,94757.38
2023-07-03T20:36:23.527Z,94754.22
2023-07-03T20:38:50.567Z,94758.81
2023-07-03T20:41:17.721Z,94763.78
2023-07-03T20:43:45.573Z,94769.22
2023-07-03T20:46:15.771Z,94769.56
2023-07-03T20:48:45.432Z,94769.06
2023-07-03T20:51:13.586Z,94770.19
2023-07-03T20:53:59.582Z,94771.66
2023-07-03T20:56:37.140Z,94777.41
2023-07-03T20:59:04.559Z,94778.19
2023-07-03T21:01:37.663Z,94776.94
2023-07-03T21:04:07.605Z,94781.53
2023-07-03T21:06:37.711Z,94779.16
2023-07-03T21:09:06.659Z,94777.56
2023-07-03T21:11:36.009Z,94774.41
2023-07-03T21:14:06.399Z,94775.53
2023-07-03T21:16:35.643Z,94777.44
2023-07-03T21:19:03.844Z,94781.28
2023-07-03T21:21:33.020Z,94785.13
2023-07-03T21:24:10.831Z,94779.22
2023-07-03T21:26:38.391Z,94782.28
2023-07-03T21:29:06.471Z,94778.75
2023-07-03T21:31:36.391Z,94791.03
2023-07-03T21:34:03.978Z,94794.88
2023-07-03T21:36:33.138Z,94796.78
2023-07-03T21:39:05.281Z,94794.41
2023-07-03T21:41:37.724Z,94801.72
2023-07-03T21:44:17.449Z,94802.41
2023-07-03T21:46:44.835Z,94801.59
2023-07-03T21:49:16.799Z,94792.69
2023-07-03T21:51:44.012Z,94801.91
2023-07-03T21:54:11.321Z,94799.53
2023-07-03T21:56:39.646Z,94800.66
2023-07-03T21:59:07.159Z,94802.09
2023-07-03T22:01:40.258Z,94805.13
2023-07-03T22:04:09.087Z,94800.81
2023-07-03T22:06:36.434Z,94808.13
2023-07-03T22:09:04.120Z,94809.25
2023-07-03T22:11:31.613Z,94799.88
2023-07-03T22:13:59.795Z,94793.19
2023-07-03T22:16:27.159Z,94800.53
2023-07-03T22:18:54.321Z,94802.75
2023-07-03T22:21:21.954Z,94800.06
2023-07-03T22:23:51.372Z,94802.28
2023-07-03T22:26:19.707Z,94802.63
2023-07-03T22:28:47.921Z,94797.53
2023-07-03T22:31:15.733Z,94803.28
2023-07-03T22:33:42.845Z,94791.63
2023-07-03T22:36:11.588Z,94788.44
2023-07-03T22:38:38.977Z,94795.00
2023-07-03T22:41:06.695Z,94790.72
2023-07-03T22:43:33.749Z,94788.34
2023-07-03T22:46:07.086Z,94790.56
2023-07-03T22:48:34.548Z,94785.47
2023-07-03T22:51:04.536Z,94777.66
2023-07-03T22:53:32.160Z,94784.19
2023-07-03T22:56:02.936Z,94785.34
2023-07-03T22:58:30.148Z,94787.22
2023-07-03T23:00:57.234Z,94781.34
2023-07-03T23:03:24.437Z,94782.47
2023-07-03T23:05:51.922Z,94784.38
2023-07-03T23:08:19.179Z,94790.44
2023-07-03T23:10:54.839Z,94793.16
2023-07-03T23:13:23.993Z,94792.19
2023-07-03T23:16:06.946Z,94799.53
2023-07-03T23:18:38.314Z,94810.34
2023-07-03T23:21:12.766Z,94804.47
2023-07-03T23:23:40.285Z,94796.69
2023-07-03T23:26:14.422Z,94802.41
2023-07-03T23:28:43.809Z,94808.13
2023-07-03T23:31:15.046Z,94809.28
2023-07-03T23:33:48.682Z,94808.47
2023-07-03T23:36:17.530Z,94807.97
2023-07-03T23:38:44.650Z,94811.03
2023-07-03T23:41:11.854Z,94807.53
2023-07-03T23:43:40.677Z,94819.13
2023-07-03T23:46:10.082Z,94822.16
2023-07-03T23:48:38.469Z,94807.03
2023-07-03T23:51:09.120Z,94815.47
2023-07-03T23:53:41.105Z,94811.16
2023-07-03T23:56:14.115Z,94813.06
2023-07-03T23:58:43.139Z,94805.28
